Time;durP1;ratioP1;P1;durP2;ratioP2;P2;SDS_P1;SDS_P2;PMS_P1;PMS_P2;Temp;Humidity;BMP_temperature;BMP_pressure;BME280_temperature;BME280_humidity;BME280_pressure;Samples;Min_cycle;Max_cycle;Signal;HPM_P1;HPM_P2
2022/04/06 00:00:29;;;;;;;2.77;2.57;;;14.00;72.30;14.30;95773.00;;;;4955082;28;20213;-83
2022/04/06 00:02:56;;;;;;;3.20;3.00;;;14.00;72.30;14.30;95769.00;;;;4955225;28;20231;-84
2022/04/06 00:05:23;;;;;;;3.50;3.20;;;14.10;72.30;14.30;95767.00;;;;4955469;28;20676;-84
2022/04/06 00:07:50;;;;;;;3.10;2.90;;;14.00;72.30;14.30;95773.00;;;;4956136;28;20203;-83
2022/04/06 00:10:17;;;;;;;3.47;3.23;;;14.00;72.20;14.40;95766.00;;;;4955005;28;20224;-83
2022/04/06 00:12:46;;;;;;;3.27;2.90;;;14.00;72.40;14.40;95768.00;;;;4939051;28;20208;-83
2022/04/06 00:15:13;;;;;;;3.00;2.80;;;14.10;72.40;14.40;95768.00;;;;4947924;28;20207;-83
2022/04/06 00:17:41;;;;;;;3.07;2.80;;;14.00;72.40;14.40;95768.00;;;;4944200;29;20222;-82
2022/04/06 00:20:11;;;;;;;3.20;2.90;;;14.00;72.40;14.40;95765.00;;;;4951793;28;20216;-83
2022/04/06 00:22:38;;;;;;;3.10;2.90;;;14.00;72.30;14.40;95764.00;;;;4951321;28;20203;-84
2022/04/06 00:25:06;;;;;;;3.77;2.63;;;14.00;72.30;14.40;95768.00;;;;4951582;29;20327;-84
2022/04/06 00:27:33;;;;;;;3.20;2.90;;;14.00;72.30;14.40;95769.00;;;;4951703;28;20206;-84
2022/04/06 00:30:03;;;;;;;2.77;2.50;;;14.00;72.30;14.40;95760.00;;;;4951563;28;20662;-83
2022/04/06 00:32:31;;;;;;;2.90;2.70;;;14.00;72.30;14.40;95763.00;;;;4949615;29;20207;-83
2022/04/06 00:37:43;;;;;;;2.80;2.60;;;14.10;72.50;14.40;95767.00;;;;4955270;29;20665;-84
2022/04/06 00:40:10;;;;;;;3.27;3.07;;;14.10;72.50;14.40;95761.00;;;;4956034;28;20220;-82
2022/04/06 00:42:37;;;;;;;2.80;2.60;;;14.10;72.60;14.40;95768.00;;;;4963591;28;20204;-82
2022/04/06 00:45:08;;;;;;;3.10;2.80;;;14.10;72.50;14.50;95763.00;;;;4963135;28;20260;-83
2022/04/06 00:47:35;;;;;;;2.87;2.67;;;14.10;72.50;14.50;95765.00;;;;4963518;28;20196;-83
2022/04/06 00:50:03;;;;;;;2.87;2.67;;;14.10;72.60;14.50;95759.00;;;;4962529;29;20196;-83
2022/04/06 00:52:31;;;;;;;3.27;3.00;;;14.10;72.60;14.50;95760.00;;;;4960814;28;20188;-82
2022/04/06 00:54:59;;;;;;;3.00;2.70;;;14.10;72.60;14.50;95764.00;;;;4959035;28;20204;-82
2022/04/06 00:57:27;;;;;;;2.67;2.47;;;14.10;72.60;14.50;95760.00;;;;4958230;28;20204;-83
2022/04/06 00:59:57;;;;;;;3.53;2.60;;;14.10;72.60;14.50;95761.00;;;;4943650;29;20204;-82
2022/04/06 01:02:27;;;;;;;2.93;2.70;;;14.10;72.60;14.50;95763.00;;;;4952865;28;20204;-83
2022/04/06 01:04:54;;;;;;;3.27;3.07;;;14.10;72.40;14.50;95759.00;;;;4949450;28;20220;-83
2022/04/06 01:07:22;;;;;;;3.13;2.90;;;14.10;72.50;14.50;95756.00;;;;4957547;28;20188;-82
2022/04/06 01:09:49;;;;;;;4.00;3.17;;;14.10;72.50;14.60;95748.00;;;;4966634;28;20622;-81
2022/04/06 01:12:17;;;;;;;3.30;3.00;;;14.20;72.80;14.50;95754.00;;;;4966388;28;20282;-81
2022/04/06 01:14:44;;;;;;;2.83;2.63;;;14.10;72.40;14.50;95754.00;;;;4965891;28;20211;-82
2022/04/06 01:17:11;;;;;;;3.20;2.83;;;14.10;72.30;14.50;95747.00;;;;4965475;28;20199;-82
2022/04/06 01:19:43;;;;;;;3.13;2.93;;;14.10;72.30;14.50;95749.00;;;;4965783;28;20210;-82
2022/04/06 01:22:14;;;;;;;3.03;2.83;;;14.10;72.30;14.50;95741.00;;;;4965297;29;20252;-82
2022/04/06 01:24:42;;;;;;;2.70;2.50;;;14.10;72.30;14.50;95752.00;;;;4956678;28;20224;-81
2022/04/06 01:27:10;;;;;;;3.00;2.80;;;14.10;72.40;14.50;95745.00;;;;4946930;29;20200;-82
2022/04/06 01:29:38;;;;;;;3.73;2.70;;;14.10;72.70;14.50;95741.00;;;;4947623;29;20257;-82
2022/04/06 01:32:11;;;;;;;3.10;2.87;;;14.10;72.40;14.50;95738.00;;;;4967352;28;20277;-82
2022/04/06 01:34:40;;;;;;;3.27;3.07;;;14.10;72.30;14.50;95734.00;;;;4975803;28;20192;-82
2022/04/06 01:37:09;;;;;;;2.90;2.70;;;14.10;72.30;14.40;95741.00;;;;4962647;28;20203;-82
2022/04/06 01:39:40;;;;;;;2.87;2.67;;;14.00;72.50;14.40;95734.00;;;;4962933;28;20207;-82
2022/04/06 01:42:09;;;;;;;2.70;2.50;;;14.10;72.50;14.40;95734.00;;;;4961478;28;20326;-82
2022/04/06 01:44:36;;;;;;;2.97;2.77;;;14.10;72.50;14.40;95736.00;;;;4960149;28;20223;-82
2022/04/06 01:47:07;;;;;;;2.50;2.40;;;14.10;72.50;14.40;95730.00;;;;4959288;28;20207;-82
2022/04/06 01:52:35;;;;;;;2.73;2.53;;;14.10;72.60;14.40;95733.00;;;;4978061;28;20242;-83
2022/04/06 01:55:07;;;;;;;2.97;2.67;;;14.10;72.70;14.40;95736.00;;;;4977785;28;20657;-82
2022/04/06 01:57:35;;;;;;;2.60;2.40;;;14.10;72.50;14.40;95728.00;;;;4970217;28;20283;-82
2022/04/06 02:00:09;;;;;;;2.90;2.57;;;14.10;72.60;14.40;95722.00;;;;4959199;28;20238;-82
2022/04/06 02:02:37;;;;;;;2.90;2.70;;;14.10;72.60;14.40;95715.00;;;;4958926;29;20212;-82
2022/04/06 02:05:04;;;;;;;2.70;2.50;;;14.10;72.60;14.40;95720.00;;;;4959680;29;20734;-82
2022/04/06 02:07:31;;;;;;;3.27;2.97;;;14.10;72.60;14.40;95705.00;;;;4959592;29;20196;-82
2022/04/06 02:10:00;;;;;;;2.90;2.63;;;14.10;72.60;14.40;95701.00;;;;4959773;28;20196;-82
2022/04/06 02:12:29;;;;;;;5.33;2.47;;;14.10;72.60;14.40;95703.00;;;;4960353;29;20276;-82
2022/04/06 02:14:57;;;;;;;2.80;2.60;;;14.00;72.50;14.40;95708.00;;;;4959321;28;20208;-82
2022/04/06 02:17:27;;;;;;;3.03;2.83;;;14.00;72.60;14.40;95702.00;;;;4959376;29;20194;-82
2022/04/06 02:19:54;;;;;;;2.97;2.77;;;14.00;72.50;14.40;95704.00;;;;4957296;28;20200;-82
2022/04/06 02:22:21;;;;;;;3.07;2.83;;;14.00;72.50;14.30;95703.00;;;;4959952;29;20196;-82
2022/04/06 02:24:48;;;;;;;2.80;2.60;;;14.00;72.60;14.30;95702.00;;;;4958836;29;20226;-82
2022/04/06 02:27:16;;;;;;;2.90;2.70;;;14.00;72.60;14.30;95706.00;;;;4959606;29;20185;-82
2022/04/06 02:29:44;;;;;;;2.70;2.50;;;14.00;72.70;14.40;95703.00;;;;4959620;28;20200;-82
2022/04/06 02:32:11;;;;;;;3.00;2.80;;;14.00;72.60;14.40;95704.00;;;;4959611;28;20719;-81
2022/04/06 02:34:40;;;;;;;3.50;3.03;;;14.00;72.70;14.40;95704.00;;;;4960804;28;20200;-82
2022/04/06 02:37:08;;;;;;;3.03;2.83;;;14.00;72.60;14.40;95700.00;;;;4961480;28;20196;-82
2022/04/06 02:39:35;;;;;;;2.90;2.70;;;14.00;72.60;14.30;95703.00;;;;4960846;29;20204;-82
2022/04/06 02:42:04;;;;;;;3.00;2.80;;;14.00;72.60;14.30;95701.00;;;;4960779;29;20232;-82
2022/04/06 02:44:31;;;;;;;2.67;2.47;;;14.00;72.60;14.30;95693.00;;;;4960942;28;20220;-82
2022/04/06 02:46:59;;;;;;;3.00;2.80;;;14.00;72.60;14.30;95696.00;;;;4960372;28;20204;-82
2022/04/06 02:49:27;;;;;;;2.90;2.70;;;14.00;72.60;14.30;95693.00;;;;4959792;28;20208;-82
2022/04/06 02:51:54;;;;;;;3.63;3.33;;;14.00;72.60;14.30;95680.00;;;;4959718;28;20228;-82
2022/04/06 02:54:21;;;;;;;3.60;3.30;;;14.00;72.60;14.30;95675.00;;;;4962036;28;20227;-82
2022/04/06 02:56:49;;;;;;;2.70;2.50;;;14.00;72.70;14.30;95680.00;;;;4963596;28;20290;-82
2022/04/06 02:59:16;;;;;;;2.93;2.73;;;14.00;72.70;14.30;95676.00;;;;4962694;28;20720;-82
2022/04/06 03:01:43;;;;;;;3.23;3.00;;;14.00;72.60;14.30;95675.00;;;;4962744;28;20216;-82
2022/04/06 03:04:11;;;;;;;3.27;2.97;;;14.00;72.80;14.30;95673.00;;;;4962130;28;20310;-82
2022/04/06 03:06:40;;;;;;;3.27;3.03;;;14.00;72.70;14.30;95674.00;;;;4969197;28;20196;-82
2022/04/06 03:09:07;;;;;;;3.30;3.00;;;14.00;72.70;14.30;95669.00;;;;4942367;29;20588;-82
2022/04/06 03:11:34;;;;;;;3.00;2.70;;;14.00;72.80;14.30;95669.00;;;;4942199;28;20219;-82
2022/04/06 03:14:02;;;;;;;3.27;3.07;;;14.00;72.90;14.30;95663.00;;;;4941638;28;20207;-82
2022/04/06 03:16:29;;;;;;;2.87;2.53;;;14.00;72.80;14.30;95668.00;;;;4941399;28;20201;-82
2022/04/06 03:18:56;;;;;;;3.27;2.97;;;14.00;72.80;14.30;95657.00;;;;4957483;28;20200;-82
2022/04/06 03:21:24;;;;;;;3.30;3.00;;;14.00;72.80;14.40;95660.00;;;;4959933;29;20231;-82
2022/04/06 03:23:54;;;;;;;3.00;2.80;;;14.00;72.90;14.40;95665.00;;;;4960771;28;20228;-82
2022/04/06 03:26:22;;;;;;;2.97;2.77;;;14.00;72.70;14.40;95658.00;;;;4959919;29;20228;-82
2022/04/06 03:28:49;;;;;;;3.30;3.10;;;14.00;72.80;14.40;95653.00;;;;4960300;28;20192;-81
2022/04/06 03:31:16;;;;;;;3.00;2.80;;;14.00;73.00;14.30;95661.00;;;;4959216;28;20224;-82
2022/04/06 03:33:43;;;;;;;3.07;2.87;;;14.00;72.90;14.40;95660.00;;;;4959618;28;20203;-82
2022/04/06 03:36:10;;;;;;;3.07;2.87;;;14.00;72.90;14.40;95665.00;;;;4962197;29;20207;-82
2022/04/06 03:38:38;;;;;;;3.30;3.00;;;14.00;72.90;14.40;95663.00;;;;4962442;29;20509;-82
2022/04/06 03:41:06;;;;;;;3.23;3.03;;;14.00;72.80;14.40;95668.00;;;;4962535;28;20232;-82
2022/04/06 03:43:33;;;;;;;3.23;2.93;;;14.00;72.80;14.40;95668.00;;;;4961821;29;20704;-82
2022/04/06 03:46:00;;;;;;;2.97;2.77;;;14.00;72.80;14.40;95659.00;;;;4961767;28;20197;-81
2022/04/06 03:48:27;;;;;;;3.13;2.90;;;14.00;72.80;14.40;95667.00;;;;4961690;28;20267;-82
2022/04/06 03:50:55;;;;;;;3.17;2.90;;;14.00;72.80;14.40;95658.00;;;;4960674;28;20220;-82
2022/04/06 03:53:22;;;;;;;2.67;2.47;;;14.00;73.00;14.40;95661.00;;;;4960904;28;20299;-83
2022/04/06 03:55:50;;;;;;;3.17;2.97;;;14.00;72.80;14.40;95648.00;;;;4960579;28;20607;-82
2022/04/06 03:58:17;;;;;;;2.93;2.73;;;14.00;72.80;14.40;95651.00;;;;4960654;29;20204;-82
2022/04/06 04:00:44;;;;;;;3.30;3.10;;;14.00;72.80;14.40;95650.00;;;;4964614;28;20230;-82
2022/04/06 04:03:11;;;;;;;2.80;2.60;;;14.00;73.00;14.30;95643.00;;;;4986454;28;20279;-82
2022/04/06 04:05:38;;;;;;;3.30;2.87;;;14.00;73.00;14.40;95637.00;;;;4959157;29;20227;-82
2022/04/06 04:08:07;;;;;;;2.63;2.50;;;14.00;72.90;14.40;95652.00;;;;4958828;29;20200;-82
2022/04/06 04:10:34;;;;;;;3.20;3.00;;;14.00;72.90;14.40;95638.00;;;;4959701;28;20231;-83
2022/04/06 04:13:02;;;;;;;3.13;2.93;;;14.00;72.90;14.40;95642.00;;;;4959629;29;20279;-82
2022/04/06 04:15:31;;;;;;;2.80;2.60;;;14.00;72.80;14.30;95636.00;;;;4957907;28;20203;-82
2022/04/06 04:17:58;;;;;;;3.23;2.93;;;14.00;72.90;14.30;95644.00;;;;4958328;28;20277;-82
2022/04/06 04:20:25;;;;;;;3.27;2.97;;;14.00;72.90;14.30;95641.00;;;;4956780;28;20216;-82
2022/04/06 04:22:52;;;;;;;3.00;2.70;;;14.00;72.80;14.30;95648.00;;;;4956597;28;20200;-82
2022/04/06 04:25:19;;;;;;;2.77;2.57;;;14.00;72.80;14.30;95656.00;;;;4955652;29;20230;-83
2022/04/06 04:27:46;;;;;;;2.53;2.33;;;14.00;72.80;14.30;95649.00;;;;4955482;28;20207;-83
2022/04/06 04:30:14;;;;;;;3.40;3.00;;;14.00;72.80;14.30;95650.00;;;;4954429;28;20227;-83
2022/04/06 04:32:42;;;;;;;3.33;3.03;;;14.00;72.90;14.30;95650.00;;;;4952040;28;20208;-84
2022/04/06 04:35:10;;;;;;;3.60;3.30;;;13.90;72.90;14.30;95649.00;;;;4951835;29;20208;-84
2022/04/06 04:37:38;;;;;;;3.67;3.37;;;13.90;73.10;14.30;95647.00;;;;4951844;28;20226;-84
2022/04/06 04:40:07;;;;;;;3.33;3.13;;;13.90;73.20;14.30;95645.00;;;;4953474;29;20350;-84
2022/04/06 04:42:34;;;;;;;5.00;3.63;;;13.90;73.20;14.30;95641.00;;;;4952291;29;20208;-83
2022/04/06 04:45:02;;;;;;;3.93;3.60;;;13.90;73.20;14.30;95643.00;;;;4952733;28;20715;-83
2022/04/06 04:47:31;;;;;;;3.63;3.30;;;13.90;73.30;14.30;95646.00;;;;4953016;29;20196;-83
2022/04/06 04:49:58;;;;;;;3.20;3.00;;;13.90;73.30;14.30;95642.00;;;;4953735;28;20258;-83
2022/04/06 04:52:25;;;;;;;3.33;3.07;;;13.90;73.30;14.30;95645.00;;;;4953739;28;20557;-83
2022/04/06 04:54:52;;;;;;;3.50;3.20;;;13.90;73.20;14.30;95648.00;;;;4954009;28;20218;-82
2022/04/06 04:57:20;;;;;;;3.50;3.20;;;13.90;73.20;14.30;95653.00;;;;4953975;28;20200;-83
2022/04/06 04:59:47;;;;;;;4.20;3.20;;;13.90;73.20;14.30;95658.00;;;;4955072;28;20848;-83
2022/04/06 05:02:14;;;;;;;3.07;2.87;;;13.90;73.30;14.30;95651.00;;;;4955806;28;20220;-82
2022/04/06 05:04:42;;;;;;;4.00;3.50;;;13.90;73.40;14.30;95651.00;;;;4961940;29;20220;-82
2022/04/06 05:07:10;;;;;;;3.47;3.17;;;13.90;73.40;14.30;95648.00;;;;4967169;28;20227;-82
2022/04/06 05:09:37;;;;;;;3.50;3.20;;;13.90;73.40;14.30;95650.00;;;;4968624;28;20204;-83
2022/04/06 05:12:05;;;;;;;3.77;3.47;;;13.90;73.50;14.30;95650.00;;;;4963350;28;20216;-84
2022/04/06 05:14:32;;;;;;;3.70;3.40;;;13.90;73.50;14.30;95648.00;;;;4962849;28;20203;-83
2022/04/06 05:17:00;;;;;;;4.23;3.83;;;13.90;73.50;14.40;95646.00;;;;4961921;29;20236;-82
2022/04/06 05:19:27;;;;;;;3.87;3.57;;;13.90;73.50;14.40;95640.00;;;;4961252;28;20214;-83
2022/04/06 05:21:55;;;;;;;3.53;3.23;;;13.90;74.20;14.40;95655.00;;;;4960237;28;20216;-83
2022/04/06 05:24:22;;;;;;;3.83;3.53;;;14.00;73.60;14.40;95640.00;;;;4960572;28;20271;-82
2022/04/06 05:26:49;;;;;;;3.87;3.57;;;13.90;73.60;14.40;95640.00;;;;4960015;28;20283;-82
2022/04/06 05:29:16;;;;;;;3.93;3.63;;;14.00;73.80;14.40;95644.00;;;;4958947;28;20668;-82
2022/04/06 05:31:43;;;;;;;3.67;3.37;;;14.00;74.40;14.40;95641.00;;;;4959713;28;20224;-83
2022/04/06 05:34:10;;;;;;;3.67;3.07;;;14.00;73.70;14.50;95643.00;;;;4958888;28;20196;-83
2022/04/06 05:36:37;;;;;;;4.50;4.20;;;14.00;73.60;14.50;95645.00;;;;4944233;28;20559;-84
2022/04/06 05:39:07;;;;;;;4.37;3.97;;;14.00;73.70;14.50;95646.00;;;;4955675;28;20207;-82
2022/04/06 05:41:34;;;;;;;4.00;3.70;;;14.00;73.70;14.50;95647.00;;;;4954744;28;20274;-83
2022/04/06 05:44:01;;;;;;;3.87;3.57;;;14.00;73.80;14.60;95647.00;;;;4953292;28;20661;-84
2022/04/06 05:46:29;;;;;;;4.13;3.83;;;14.10;73.90;14.60;95651.00;;;;4951827;28;20626;-83
2022/04/06 05:48:56;;;;;;;4.03;3.67;;;14.10;73.90;14.60;95653.00;;;;4952108;28;20197;-83
2022/04/06 05:51:23;;;;;;;4.10;3.80;;;14.10;73.90;14.70;95646.00;;;;4954766;28;20231;-83
2022/04/06 05:53:50;;;;;;;4.33;3.93;;;14.10;74.00;14.70;95652.00;;;;4953011;28;20208;-83
2022/04/06 05:56:18;;;;;;;5.17;4.30;;;14.10;73.90;14.70;95643.00;;;;4953574;28;20200;-84
2022/04/06 05:58:45;;;;;;;4.53;4.13;;;14.10;73.80;14.80;95647.00;;;;4953593;28;20204;-83
2022/04/06 06:01:12;;;;;;;4.10;3.80;;;14.20;73.90;14.80;95644.00;;;;4956318;28;20231;-83
2022/04/06 06:03:39;;;;;;;4.53;3.97;;;14.20;73.60;14.80;95643.00;;;;4956141;29;20215;-83
2022/04/06 06:06:06;;;;;;;3.70;3.40;;;14.20;73.50;14.90;95643.00;;;;4956231;29;20247;-83
2022/04/06 06:08:33;;;;;;;4.67;4.27;;;14.30;73.70;14.90;95643.00;;;;4956191;29;20196;-84
2022/04/06 06:11:01;;;;;;;4.07;3.77;;;14.30;73.80;15.00;95641.00;;;;4954685;28;20216;-84
2022/04/06 06:13:30;;;;;;;3.73;3.43;;;14.30;73.70;15.00;95641.00;;;;4954056;29;20211;-85
2022/04/06 06:15:57;;;;;;;4.70;4.20;;;14.40;73.90;15.10;95649.00;;;;4953945;29;20556;-85
2022/04/06 06:18:25;;;;;;;4.10;3.80;;;14.40;73.90;15.10;95653.00;;;;4954125;29;20208;-83
2022/04/06 06:20:52;;;;;;;4.27;3.97;;;14.40;73.60;15.10;95648.00;;;;4956203;28;20224;-83
2022/04/06 06:23:19;;;;;;;3.60;3.40;;;14.50;73.80;15.20;95653.00;;;;4955824;29;20592;-83
2022/04/06 06:25:46;;;;;;;3.90;3.60;;;14.50;73.40;15.30;95643.00;;;;4954272;29;20230;-84
2022/04/06 06:28:13;;;;;;;4.10;3.70;;;14.60;73.70;15.30;95654.00;;;;4953550;28;20274;-85
2022/04/06 06:30:42;;;;;;;4.27;3.87;;;14.60;73.50;15.40;95645.00;;;;5005529;28;20220;-83
2022/04/06 06:33:09;;;;;;;3.80;3.50;;;14.70;73.40;15.40;95645.00;;;;5010875;28;20620;-83
2022/04/06 06:35:36;;;;;;;3.87;3.57;;;14.70;73.30;15.50;95651.00;;;;4954799;29;20200;-83
2022/04/06 06:38:03;;;;;;;4.07;3.73;;;14.80;73.50;15.60;95652.00;;;;4955665;28;20196;-83
2022/04/06 06:40:30;;;;;;;4.00;3.70;;;14.90;73.60;15.70;95647.00;;;;4955718;28;20220;-83
2022/04/06 06:42:57;;;;;;;4.37;4.03;;;14.90;73.60;15.80;95655.00;;;;4955461;28;20214;-83
2022/04/06 06:45:24;;;;;;;4.23;3.83;;;15.00;73.20;15.80;95654.00;;;;4939359;29;20224;-83
2022/04/06 06:47:53;;;;;;;4.37;3.97;;;15.10;73.40;15.90;95645.00;;;;4957035;28;20202;-83
2022/04/06 06:50:20;;;;;;;4.23;3.83;;;15.20;73.20;16.00;95648.00;;;;4958367;28;20226;-84
2022/04/06 06:52:48;;;;;;;4.10;3.77;;;15.20;72.90;16.00;95647.00;;;;4950037;28;20201;-83
2022/04/06 06:55:18;;;;;;;3.90;3.50;;;15.30;73.10;16.10;95648.00;;;;4943540;28;20192;-83
2022/04/06 06:57:45;;;;;;;4.10;3.80;;;15.40;72.60;16.10;95648.00;;;;4957675;28;20231;-83
2022/04/06 07:00:14;;;;;;;3.67;3.37;;;15.40;72.40;16.10;95646.00;;;;4957294;28;20557;-83
2022/04/06 07:02:41;;;;;;;3.67;3.37;;;15.40;72.30;16.00;95650.00;;;;4961570;28;20214;-83
2022/04/06 07:05:11;;;;;;;5.10;3.67;;;15.40;72.00;16.00;95650.00;;;;4957235;29;20222;-83
2022/04/06 07:07:53;;;;;;;3.60;3.30;;;15.50;71.70;16.00;95647.00;;;;4957310;28;20653;-83
2022/04/06 07:10:21;;;;;;;3.27;3.00;;;15.50;71.40;16.00;95641.00;;;;4955794;28;20231;-83
2022/04/06 07:12:48;;;;;;;3.40;3.10;;;15.50;71.60;16.00;95636.00;;;;4956876;28;20563;-83
2022/04/06 07:15:16;;;;;;;3.17;2.97;;;15.50;71.60;16.00;95637.00;;;;4956343;28;20196;-83
2022/04/06 07:17:43;;;;;;;3.40;3.10;;;15.50;71.60;16.00;95640.00;;;;4956906;28;20200;-83
2022/04/06 07:20:12;;;;;;;3.60;3.30;;;15.60;72.00;16.10;95637.00;;;;4956147;28;20697;-83
2022/04/06 07:22:39;;;;;;;3.23;2.93;;;15.60;72.00;16.10;95635.00;;;;4951096;28;20200;-83
2022/04/06 07:25:08;;;;;;;3.10;2.80;;;15.70;71.80;16.20;95638.00;;;;4957452;28;20216;-83
2022/04/06 07:27:36;;;;;;;3.33;3.10;;;15.70;72.00;16.20;95634.00;;;;4957418;28;20747;-83
2022/04/06 07:30:05;;;;;;;3.30;3.00;;;15.80;71.70;16.30;95640.00;;;;4957688;28;20620;-83
2022/04/06 07:32:32;;;;;;;3.40;3.10;;;15.80;71.90;16.50;95625.00;;;;4957699;28;20207;-83
2022/04/06 07:34:59;;;;;;;3.30;3.00;;;15.90;72.30;16.60;95632.00;;;;4948184;29;20188;-83
2022/04/06 07:37:35;;;;;;;3.37;3.17;;;16.00;72.30;16.70;95624.00;;;;4948071;28;20239;-83
2022/04/06 07:40:02;;;;;;;3.13;2.93;;;16.10;72.00;16.90;95618.00;;;;4942494;28;20192;-83
2022/04/06 07:42:29;;;;;;;3.30;3.10;;;16.20;72.20;17.10;95623.00;;;;4957724;28;20215;-83
2022/04/06 07:44:56;;;;;;;2.90;2.70;;;16.30;72.50;17.30;95616.00;;;;4956040;28;20733;-84
2022/04/06 07:47:30;;;;;;;3.10;2.90;;;16.50;72.50;17.40;95624.00;;;;4956025;29;20204;-83
2022/04/06 07:49:57;;;;;;;2.93;2.73;;;16.70;72.50;17.60;95623.00;;;;4956662;28;20232;-83
2022/04/06 07:52:25;;;;;;;3.40;3.10;;;16.80;72.20;17.70;95626.00;;;;4956873;28;20220;-83
2022/04/06 07:54:53;;;;;;;2.97;2.77;;;16.90;71.90;17.80;95623.00;;;;4950026;29;20189;-83
2022/04/06 07:57:22;;;;;;;3.07;2.87;;;17.00;71.20;17.90;95623.00;;;;4952049;28;20226;-84
2022/04/06 07:59:49;;;;;;;2.80;2.50;;;17.10;70.80;18.00;95633.00;;;;4959299;28;20207;-84
2022/04/06 08:02:16;;;;;;;2.83;2.63;;;17.20;69.20;18.20;95629.00;;;;4962195;29;20262;-83
2022/04/06 08:04:44;;;;;;;2.63;2.50;;;17.40;70.00;18.40;95633.00;;;;4955488;29;20231;-83
2022/04/06 08:07:11;;;;;;;2.43;2.33;;;17.40;70.10;18.50;95632.00;;;;4952675;29;20220;-83
2022/04/06 08:09:38;;;;;;;2.67;2.47;;;17.60;69.00;18.60;95631.00;;;;4947588;28;20714;-83
2022/04/06 08:12:07;;;;;;;2.30;2.20;;;17.70;69.20;18.80;95629.00;;;;4957605;28;20303;-83
2022/04/06 08:14:34;;;;;;;2.80;2.60;;;17.80;69.10;18.90;95627.00;;;;4955245;28;20211;-83
2022/04/06 08:17:01;;;;;;;2.40;2.30;;;18.00;69.10;19.00;95617.00;;;;4955281;28;20210;-84
2022/04/06 08:19:28;;;;;;;2.37;2.27;;;18.00;69.00;19.10;95633.00;;;;4953985;28;20202;-83
2022/04/06 08:21:55;;;;;;;2.40;2.20;;;18.20;68.60;19.20;95629.00;;;;4954165;28;20270;-84
2022/04/06 08:24:22;;;;;;;2.30;2.20;;;18.30;67.90;19.20;95628.00;;;;4953445;28;20200;-84
2022/04/06 08:26:49;;;;;;;2.10;2.00;;;18.30;68.00;19.30;95631.00;;;;4954751;29;20224;-83
2022/04/06 08:29:18;;;;;;;2.23;2.07;;;18.40;67.30;19.40;95637.00;;;;4954954;28;20200;-83
2022/04/06 08:31:45;;;;;;;2.20;2.00;;;18.50;67.80;19.50;95631.00;;;;4954929;28;20226;-83
2022/04/06 08:34:12;;;;;;;2.17;2.03;;;18.50;67.00;19.50;95630.00;;;;4958549;28;20214;-84
2022/04/06 08:36:40;;;;;;;2.77;2.40;;;18.60;67.40;19.60;95631.00;;;;4956529;28;20211;-83
2022/04/06 08:39:07;;;;;;;2.10;2.00;;;18.70;67.00;19.60;95630.00;;;;4954773;28;20200;-83
2022/04/06 08:41:35;;;;;;;1.90;1.80;;;18.80;67.10;19.70;95631.00;;;;4954612;28;20234;-83
2022/04/06 08:44:03;;;;;;;2.00;1.90;;;18.80;67.00;19.80;95635.00;;;;4953606;28;20197;-83
2022/04/06 08:46:35;;;;;;;1.90;1.70;;;18.90;67.10;19.90;95626.00;;;;4953915;28;20311;-83
2022/04/06 08:49:04;;;;;;;1.70;1.60;;;19.00;65.90;20.00;95635.00;;;;4952783;28;20615;-84
2022/04/06 08:51:33;;;;;;;1.70;1.60;;;19.10;66.00;20.00;95630.00;;;;4953019;29;20223;-83
2022/04/06 08:54:00;;;;;;;2.00;1.90;;;19.20;66.30;20.10;95618.00;;;;4945257;28;20200;-83
2022/04/06 08:56:28;;;;;;;1.80;1.70;;;19.30;66.60;20.30;95619.00;;;;4953813;28;20276;-84
2022/04/06 08:58:55;;;;;;;1.90;1.80;;;19.40;66.80;20.40;95618.00;;;;4997722;28;20193;-84
2022/04/06 09:01:22;;;;;;;2.03;1.80;;;19.50;65.80;20.50;95622.00;;;;4976573;28;20216;-84
2022/04/06 09:03:51;;;;;;;1.70;1.60;;;19.60;65.10;20.60;95618.00;;;;4954694;28;20203;-83
2022/04/06 09:06:19;;;;;;;1.60;1.50;;;19.80;63.50;20.70;95617.00;;;;4954783;28;20231;-83
2022/04/06 09:08:48;;;;;;;1.30;1.30;;;19.90;64.80;20.90;95613.00;;;;4955399;28;20196;-83
2022/04/06 09:11:21;;;;;;;1.40;1.30;;;20.00;64.20;21.00;95618.00;;;;4956005;29;20255;-84
2022/04/06 09:13:57;;;;;;;1.33;1.33;;;20.20;64.40;21.20;95612.00;;;;4954026;28;20188;-84
2022/04/06 09:16:29;;;;;;;1.50;1.40;;;20.40;64.20;21.30;95621.00;;;;4954963;29;20198;-82
2022/04/06 09:18:57;;;;;;;2.10;1.60;;;20.50;63.20;21.40;95608.00;;;;4954003;28;20200;-84
2022/04/06 09:21:24;;;;;;;1.60;1.40;;;20.60;62.00;21.60;95605.00;;;;4954420;29;20220;-84
2022/04/06 09:23:51;;;;;;;1.60;1.50;;;20.80;63.60;21.70;95608.00;;;;4939916;28;20204;-83
2022/04/06 09:26:21;;;;;;;1.33;1.30;;;21.00;62.80;21.70;95605.00;;;;4948971;28;20314;-84
2022/04/06 09:28:51;;;;;;;1.30;1.20;;;21.10;61.60;21.70;95608.00;;;;4957198;28;20560;-82
2022/04/06 09:31:20;;;;;;;1.20;1.20;;;21.20;60.20;21.70;95606.00;;;;4960075;28;20216;-82
2022/04/06 09:33:59;;;;;;;1.17;1.10;;;21.20;60.80;21.80;95603.00;;;;4970443;28;20202;-81
2022/04/06 09:36:29;;;;;;;1.53;1.43;;;21.40;60.20;21.90;95593.00;;;;4960540;28;20688;-82
2022/04/06 09:38:56;;;;;;;1.23;1.17;;;21.50;59.80;21.90;95594.00;;;;4955624;29;20200;-82
2022/04/06 09:41:25;;;;;;;1.00;1.00;;;21.70;60.00;21.90;95599.00;;;;4961500;28;20232;-82
2022/04/06 09:43:54;;;;;;;1.10;1.10;;;21.80;59.80;21.90;95593.00;;;;4959482;28;20692;-83
2022/04/06 09:49:10;;;;;;;2.47;1.30;;;21.90;59.10;21.90;95589.00;;;;4955410;29;20684;-84
2022/04/06 09:51:40;;;;;;;1.40;1.30;;;22.00;58.50;22.00;95583.00;;;;4954449;28;20224;-85
2022/04/06 09:54:10;;;;;;;1.50;1.40;;;22.00;58.50;22.00;95583.00;;;;4954176;28;20200;-84
2022/04/06 09:56:38;;;;;;;1.60;1.50;;;22.10;58.60;22.00;95578.00;;;;4954854;28;20215;-83
2022/04/06 09:59:05;;;;;;;1.07;1.07;;;22.10;58.50;22.10;95570.00;;;;4955755;28;20203;-86
2022/04/06 10:01:35;;;;;;;1.40;1.30;;;22.10;59.00;22.20;95570.00;;;;4955634;28;20311;-85
2022/04/06 10:04:05;;;;;;;1.47;1.20;;;22.20;58.70;22.20;95563.00;;;;4952453;28;20271;-87
2022/04/06 10:06:36;;;;;;;1.53;1.43;;;22.30;58.30;22.20;95562.00;;;;4954389;28;20664;-85
2022/04/06 10:09:11;;;;;;;1.30;1.20;;;22.30;57.90;22.20;95559.00;;;;4954772;28;20207;-84
2022/04/06 10:11:40;;;;;;;1.43;1.33;;;22.20;57.40;22.20;95561.00;;;;4953791;28;20220;-84
2022/04/06 10:14:10;;;;;;;1.30;1.20;;;22.30;57.90;22.20;95552.00;;;;4953480;28;20215;-84
2022/04/06 10:16:39;;;;;;;1.03;1.03;;;22.30;56.60;22.20;95549.00;;;;4954941;28;20208;-83
2022/04/06 10:19:08;;;;;;;1.30;1.20;;;22.40;57.80;22.20;95546.00;;;;4954133;28;20196;-84
2022/04/06 10:21:45;;;;;;;1.00;1.00;;;22.60;57.20;22.30;95543.00;;;;4954769;28;20228;-83
2022/04/06 10:24:29;;;;;;;1.27;1.17;;;22.60;56.50;22.30;95548.00;;;;4954695;28;20219;-83
2022/04/06 10:27:16;;;;;;;1.10;1.10;;;22.60;55.60;22.30;95536.00;;;;4956789;28;20224;-82
2022/04/06 10:30:09;;;;;;;1.33;1.00;;;22.70;56.80;22.40;95536.00;;;;4958984;28;20474;-83
2022/04/06 10:32:41;;;;;;;0.97;0.97;;;22.80;56.40;22.40;95536.00;;;;4956779;28;20204;-83
2022/04/06 10:35:23;;;;;;;1.20;1.10;;;22.90;57.30;22.50;95521.00;;;;4956705;29;20269;-83
2022/04/06 10:38:13;;;;;;;1.13;1.13;;;23.00;56.20;22.70;95522.00;;;;4958142;28;20208;-85
2022/04/06 10:40:59;;;;;;;1.73;1.17;;;23.10;56.90;22.90;95508.00;;;;4957782;28;20229;-82
2022/04/06 10:43:50;;;;;;;1.10;1.10;;;23.40;55.40;23.10;95509.00;;;;4956254;28;20472;-85
2022/04/06 10:46:32;;;;;;;1.30;1.10;;;23.60;55.20;23.20;95507.00;;;;4953790;28;20615;-83
2022/04/06 10:49:10;;;;;;;1.33;1.23;;;23.70;55.60;23.20;95503.00;;;;4957677;28;20618;-83
2022/04/06 10:51:39;;;;;;;1.10;1.10;;;23.70;55.30;23.20;95501.00;;;;4957000;28;20221;-83
2022/04/06 10:54:42;;;;;;;0.87;0.87;;;23.70;54.80;23.30;95491.00;;;;4957166;29;20213;-83
2022/04/06 10:57:09;;;;;;;1.07;1.07;;;23.70;52.70;23.30;95485.00;;;;4945829;28;20669;-83
2022/04/06 10:59:37;;;;;;;1.20;1.17;;;23.60;55.00;23.30;95486.00;;;;4958663;29;20199;-83
2022/04/06 11:02:21;;;;;;;0.83;0.83;;;23.50;54.70;23.20;95485.00;;;;4958686;28;20235;-83
2022/04/06 11:04:49;;;;;;;1.23;1.10;;;23.40;52.70;23.10;95478.00;;;;4950763;29;20197;-83
2022/04/06 11:10:16;;;;;;;1.10;1.07;;;23.10;53.60;22.90;95476.00;;;;4961461;28;20283;-83
2022/04/06 11:13:04;;;;;;;1.40;1.30;;;22.90;53.40;22.80;95471.00;;;;4957150;28;20195;-83